Time;durP1;ratioP1;P1;durP2;ratioP2;P2;SDS_P1;SDS_P2;PMS_P1;PMS_P2;Temp;Humidity;BMP_temperature;BMP_pressure;BME280_temperature;BME280_humidity;BME280_pressure;Samples;Min_cycle;Max_cycle;Signal;HPM_P1;HPM_P2
2022/10/03 00:01:27;;;;;;;1.60;1.48;;;14.40;99.90;;;;;;7393008;19;20139;-82
2022/10/03 00:04:11;;;;;;;4.37;1.60;;;14.30;99.90;;;;;;7392999;19;20592;-83
2022/10/03 00:06:40;;;;;;;2.25;1.50;;;14.40;99.90;;;;;;7391590;19;20680;-83
2022/10/03 00:09:34;;;;;;;2.00;1.52;;;14.10;99.90;;;;;;7390898;19;20172;-82
2022/10/03 00:12:38;;;;;;;1.73;1.50;;;14.10;99.90;;;;;;7391547;19;20141;-82
2022/10/03 00:15:16;;;;;;;1.87;1.77;;;14.10;99.90;;;;;;7394185;19;20564;-83
2022/10/03 00:17:42;;;;;;;2.25;2.05;;;14.10;99.90;;;;;;7383081;19;20150;-82
2022/10/03 00:20:45;;;;;;;2.40;2.03;;;14.20;99.90;;;;;;7389918;19;20213;-83
2022/10/03 00:23:35;;;;;;;3.43;1.80;;;14.10;99.90;;;;;;7392284;19;20225;-80
2022/10/03 00:26:42;;;;;;;2.63;1.75;;;13.80;99.90;;;;;;7387259;19;20187;-82
2022/10/03 00:29:29;;;;;;;2.10;1.80;;;13.70;99.90;;;;;;7386908;19;20142;-82
2022/10/03 00:32:07;;;;;;;2.57;1.90;;;13.90;99.90;;;;;;7392887;19;20135;-82
2022/10/03 00:34:53;;;;;;;2.37;2.10;;;14.00;99.90;;;;;;7391513;19;20146;-82
2022/10/03 00:37:36;;;;;;;2.88;2.42;;;13.90;99.90;;;;;;7390703;19;20485;-82
2022/10/03 00:40:32;;;;;;;2.73;2.50;;;14.10;99.90;;;;;;7388936;19;20611;-82
2022/10/03 00:43:35;;;;;;;3.50;2.47;;;13.90;99.90;;;;;;7387026;19;20162;-83
2022/10/03 00:46:07;;;;;;;3.13;2.17;;;13.90;99.90;;;;;;7393271;19;20554;-82
2022/10/03 00:48:45;;;;;;;3.67;2.63;;;13.90;99.90;;;;;;7391149;19;20142;-84
2022/10/03 00:51:38;;;;;;;3.23;2.57;;;13.90;99.90;;;;;;7389785;19;20170;-82
2022/10/03 00:54:40;;;;;;;5.90;2.67;;;14.00;99.90;;;;;;7387937;19;20143;-84
2022/10/03 00:57:26;;;;;;;4.40;2.67;;;13.90;99.90;;;;;;7389886;19;20821;-82
2022/10/03 01:00:23;;;;;;;5.70;3.40;;;14.00;99.90;;;;;;7387124;19;20154;-81
2022/10/03 01:02:58;;;;;;;4.53;3.00;;;14.10;99.90;;;;;;7388417;19;20142;-83
2022/10/03 01:05:56;;;;;;;4.63;3.25;;;14.20;99.90;;;;;;7390789;19;20154;-83
2022/10/03 01:08:43;;;;;;;4.70;3.30;;;14.20;99.90;;;;;;7388987;19;20146;-80
2022/10/03 01:11:27;;;;;;;4.17;3.17;;;14.20;99.90;;;;;;7392532;19;20190;-82
2022/10/03 01:14:05;;;;;;;4.77;3.70;;;14.20;99.90;;;;;;7388529;19;20150;-82
2022/10/03 01:17:09;;;;;;;4.33;3.43;;;14.20;99.90;;;;;;7390949;19;20939;-82
2022/10/03 01:19:59;;;;;;;4.22;3.15;;;14.20;99.90;;;;;;7383083;19;20941;-82
2022/10/03 01:23:02;;;;;;;3.53;3.23;;;14.20;99.90;;;;;;7391482;19;20146;-82
2022/10/03 01:25:44;;;;;;;4.95;3.78;;;13.90;99.90;;;;;;7387580;19;20154;-81
2022/10/03 01:31:32;;;;;;;3.90;3.50;;;13.90;99.90;;;;;;7388580;19;20151;-83
2022/10/03 01:34:10;;;;;;;3.87;3.40;;;13.90;99.90;;;;;;7390023;19;20138;-81
2022/10/03 01:36:51;;;;;;;5.93;3.47;;;13.90;99.90;;;;;;7386418;19;20181;-82
2022/10/03 01:39:30;;;;;;;3.57;3.27;;;13.90;99.90;;;;;;7388295;19;20143;-84
2022/10/03 01:42:10;;;;;;;6.73;3.83;;;13.80;99.90;;;;;;7388698;19;20138;-82
2022/10/03 01:44:41;;;;;;;4.60;3.57;;;13.60;99.90;;;;;;7390056;19;20263;-82
2022/10/03 01:47:42;;;;;;;3.35;3.05;;;13.70;99.90;;;;;;7386659;19;20157;-81
2022/10/03 01:50:22;;;;;;;4.17;3.10;;;13.70;99.90;;;;;;7395067;19;20526;-80
2022/10/03 01:53:25;;;;;;;6.30;4.30;;;13.90;99.90;;;;;;7397202;19;20150;-84
2022/10/03 01:56:24;;;;;;;5.85;3.72;;;13.90;99.90;;;;;;7395518;19;20534;-82
2022/10/03 01:59:04;;;;;;;3.87;3.47;;;14.00;99.90;;;;;;7396090;19;20143;-82
2022/10/03 02:01:45;;;;;;;5.03;4.33;;;14.10;99.90;;;;;;7398229;19;20135;-83
2022/10/03 02:04:32;;;;;;;5.80;4.50;;;14.20;99.90;;;;;;7394513;19;20169;-82
2022/10/03 02:07:40;;;;;;;5.93;4.20;;;14.20;99.90;;;;;;7396039;19;20143;-84
2022/10/03 02:10:43;;;;;;;4.30;3.60;;;14.20;99.90;;;;;;7395685;19;20145;-83
2022/10/03 02:13:20;;;;;;;5.67;4.53;;;14.10;99.90;;;;;;7397612;19;20134;-81
2022/10/03 02:16:11;;;;;;;6.37;4.70;;;14.30;99.90;;;;;;7395062;19;20209;-82
2022/10/03 02:19:04;;;;;;;5.27;4.57;;;14.10;99.90;;;;;;7394628;19;20214;-81
2022/10/03 02:21:31;;;;;;;5.33;4.83;;;14.20;99.90;;;;;;7396883;19;20142;-82
2022/10/03 02:24:35;;;;;;;7.23;5.77;;;14.30;99.90;;;;;;7393809;19;20476;-82
2022/10/03 02:27:26;;;;;;;5.63;5.00;;;14.20;99.90;;;;;;7392280;19;20163;-81
2022/10/03 02:30:18;;;;;;;8.63;5.73;;;14.10;99.90;;;;;;7395272;19;20134;-81
2022/10/03 02:33:12;;;;;;;5.65;4.53;;;14.10;99.90;;;;;;7392924;19;20146;-82
2022/10/03 02:36:09;;;;;;;5.97;4.88;;;14.00;99.90;;;;;;7394673;19;20731;-82
2022/10/03 02:38:44;;;;;;;6.73;5.33;;;14.10;99.90;;;;;;7392363;19;20166;-82
2022/10/03 02:41:26;;;;;;;6.70;5.20;;;14.20;99.90;;;;;;7394288;19;20150;-81
2022/10/03 02:44:12;;;;;;;5.73;5.00;;;14.20;99.90;;;;;;7392119;19;20146;-82
2022/10/03 02:47:04;;;;;;;6.23;5.40;;;14.20;99.90;;;;;;7396103;19;20162;-82
2022/10/03 02:49:57;;;;;;;8.07;5.35;;;14.20;99.90;;;;;;7396033;19;20139;-80
2022/10/03 02:53:00;;;;;;;6.15;5.55;;;14.20;99.90;;;;;;7393613;19;20147;-83
2022/10/03 02:55:56;;;;;;;6.00;4.87;;;14.00;99.90;;;;;;7392424;19;20149;-82
2022/10/03 02:58:28;;;;;;;6.63;5.03;;;13.90;99.90;;;;;;7394288;19;20155;-83
2022/10/03 03:01:11;;;;;;;6.87;5.10;;;14.00;99.90;;;;;;7395726;19;21153;-82
2022/10/03 03:04:03;;;;;;;7.33;5.27;;;14.10;99.90;;;;;;7395236;19;20205;-82
2022/10/03 03:07:01;;;;;;;7.13;5.23;;;14.20;99.90;;;;;;7391119;19;20150;-81
2022/10/03 03:09:42;;;;;;;5.47;4.45;;;14.10;99.90;;;;;;7395287;19;20138;-82
2022/10/03 03:12:18;;;;;;;5.53;4.30;;;14.10;99.90;;;;;;7392920;19;20813;-81
2022/10/03 03:15:22;;;;;;;6.73;4.73;;;14.10;99.90;;;;;;7391489;19;20138;-82
2022/10/03 03:18:11;;;;;;;6.13;5.25;;;14.10;99.90;;;;;;7391709;19;20178;-82
2022/10/03 03:20:54;;;;;;;6.80;4.60;;;14.20;99.90;;;;;;7394218;19;20146;-81
2022/10/03 03:23:45;;;;;;;5.53;4.60;;;14.20;99.90;;;;;;7393150;19;20616;-83
2022/10/03 03:26:28;;;;;;;8.27;4.90;;;14.20;99.90;;;;;;7389443;19;20158;-82
2022/10/03 03:29:09;;;;;;;5.03;4.53;;;14.10;99.90;;;;;;7394431;19;20146;-83
2022/10/03 03:31:54;;;;;;;6.23;4.60;;;14.20;99.90;;;;;;7393321;19;20506;-81
2022/10/03 03:35:05;;;;;;;8.53;4.27;;;14.10;99.90;;;;;;7392814;19;20139;-81
2022/10/03 03:37:53;;;;;;;6.88;5.00;;;14.20;99.90;;;;;;7390633;19;20142;-81
2022/10/03 03:40:37;;;;;;;4.23;3.77;;;14.20;99.90;;;;;;7390021;19;20146;-82
2022/10/03 03:43:07;;;;;;;5.67;4.40;;;13.90;99.90;;;;;;7391880;19;20181;-83
2022/10/03 03:45:44;;;;;;;6.80;4.17;;;14.00;99.90;;;;;;7394624;19;20181;-82
2022/10/03 03:48:42;;;;;;;5.80;4.30;;;13.90;99.90;;;;;;7392863;19;20168;-83
2022/10/03 03:51:33;;;;;;;5.30;4.23;;;13.90;99.90;;;;;;7393403;19;20148;-82
2022/10/03 03:54:30;;;;;;;4.90;4.13;;;14.00;99.90;;;;;;7394277;19;20143;-82
2022/10/03 03:57:13;;;;;;;5.13;4.00;;;14.10;99.90;;;;;;7394395;19;20167;-81
2022/10/03 03:59:57;;;;;;;4.90;3.72;;;14.10;99.90;;;;;;7390670;19;20151;-81
2022/10/03 04:02:53;;;;;;;5.23;4.00;;;14.10;99.90;;;;;;7393295;19;20163;-83
2022/10/03 04:05:29;;;;;;;5.33;4.83;;;14.10;99.90;;;;;;7391307;19;20170;-83
2022/10/03 04:08:16;;;;;;;5.30;4.28;;;14.00;99.90;;;;;;7391637;19;20145;-81
2022/10/03 04:10:57;;;;;;;6.87;3.90;;;14.00;99.90;;;;;;7390460;19;20158;-82
2022/10/03 04:13:46;;;;;;;5.00;3.93;;;14.00;99.90;;;;;;7391598;19;20143;-83
2022/10/03 04:19:41;;;;;;;5.40;3.70;;;14.00;99.90;;;;;;7391071;19;20131;-81
2022/10/03 04:22:17;;;;;;;7.17;4.00;;;14.00;99.90;;;;;;7394167;19;20566;-81
2022/10/03 04:25:04;;;;;;;7.40;4.13;;;14.00;99.90;;;;;;7390837;19;20147;-82
2022/10/03 04:27:40;;;;;;;4.60;3.53;;;14.00;99.90;;;;;;7392343;19;20135;-86
2022/10/03 04:30:14;;;;;;;4.80;4.03;;;14.00;99.90;;;;;;7393279;19;20253;-82
2022/10/03 04:32:46;;;;;;;6.80;4.10;;;14.00;99.90;;;;;;7389676;19;20137;-82
2022/10/03 04:35:30;;;;;;;4.33;3.50;;;13.80;99.90;;;;;;7391988;19;20138;-84
2022/10/03 04:38:05;;;;;;;4.93;3.77;;;13.90;99.90;;;;;;7391872;19;20134;-83
2022/10/03 04:40:47;;;;;;;4.97;4.37;;;13.80;99.90;;;;;;7388919;19;20137;-83
2022/10/03 04:43:42;;;;;;;8.63;4.40;;;14.00;99.90;;;;;;7391498;19;20134;-83
2022/10/03 04:46:46;;;;;;;7.33;3.80;;;13.90;99.90;;;;;;7388864;19;20177;-83
2022/10/03 04:49:26;;;;;;;8.97;4.37;;;13.80;99.90;;;;;;7391969;19;20134;-81
2022/10/03 04:51:54;;;;;;;6.10;3.90;;;13.60;99.90;;;;;;7391592;19;20158;-83
2022/10/03 04:54:47;;;;;;;4.57;3.70;;;13.70;99.90;;;;;;7390612;19;20154;-82
2022/10/03 04:57:34;;;;;;;4.73;3.90;;;13.80;99.90;;;;;;7390437;19;20138;-83
2022/10/03 05:00:23;;;;;;;5.83;3.43;;;13.90;99.90;;;;;;7386193;19;20147;-81
2022/10/03 05:03:13;;;;;;;7.70;4.60;;;13.90;99.90;;;;;;7390211;19;20135;-82
2022/10/03 05:06:01;;;;;;;5.40;4.10;;;13.90;99.90;;;;;;7389768;19;20698;-83
2022/10/03 05:08:48;;;;;;;7.77;3.90;;;13.90;99.90;;;;;;7389612;19;20225;-82
2022/10/03 05:11:58;;;;;;;5.80;4.47;;;13.90;99.90;;;;;;7388493;19;20557;-82
2022/10/03 05:14:48;;;;;;;6.90;4.90;;;14.00;99.90;;;;;;7388643;19;20146;-82
2022/10/03 05:17:43;;;;;;;6.17;4.47;;;14.00;99.90;;;;;;7389961;19;20271;-82
2022/10/03 05:20:17;;;;;;;5.10;4.47;;;14.00;99.90;;;;;;7388242;19;20131;-82
2022/10/03 05:22:43;;;;;;;7.43;4.40;;;13.90;99.90;;;;;;7387989;19;20137;-82
2022/10/03 05:25:52;;;;;;;5.70;4.73;;;13.90;99.90;;;;;;7395987;19;20663;-83
2022/10/03 05:28:41;;;;;;;5.07;4.03;;;13.80;99.90;;;;;;7396532;19;20142;-82
2022/10/03 05:31:32;;;;;;;5.10;4.53;;;13.80;99.90;;;;;;7395076;19;20134;-82
2022/10/03 05:34:21;;;;;;;7.00;4.47;;;13.80;99.90;;;;;;7398332;19;20158;-83
2022/10/03 05:37:05;;;;;;;5.57;4.30;;;13.70;99.90;;;;;;7397553;19;20228;-83
2022/10/03 05:40:06;;;;;;;9.73;5.17;;;13.80;99.90;;;;;;7394132;19;20146;-83
2022/10/03 05:42:50;;;;;;;7.57;5.23;;;13.80;99.90;;;;;;7392291;19;20203;-82
2022/10/03 05:45:29;;;;;;;7.57;5.10;;;13.80;99.90;;;;;;7396402;19;20142;-83
2022/10/03 05:48:39;;;;;;;9.17;5.60;;;13.90;99.90;;;;;;7397243;19;20134;-82
2022/10/03 05:51:42;;;;;;;11.23;6.17;;;13.90;99.90;;;;;;7393113;19;20146;-84
2022/10/03 05:54:50;;;;;;;8.97;6.10;;;13.90;99.90;;;;;;7393948;19;20557;-82
2022/10/03 05:57:42;;;;;;;9.65;6.30;;;13.90;99.90;;;;;;7397299;19;20146;-82
2022/10/03 06:00:20;;;;;;;12.20;6.77;;;13.90;99.90;;;;;;7393565;19;20142;-83
2022/10/03 06:03:22;;;;;;;13.10;8.00;;;13.90;99.90;;;;;;7396269;19;20150;-84
2022/10/03 06:06:18;;;;;;;15.20;8.93;;;13.90;99.90;;;;;;7397377;19;20241;-83
2022/10/03 06:09:05;;;;;;;11.77;8.73;;;13.90;99.90;;;;;;7395778;19;20127;-82
2022/10/03 06:11:57;;;;;;;12.87;8.13;;;13.80;99.90;;;;;;7396951;19;20151;-83
2022/10/03 06:14:53;;;;;;;13.02;8.40;;;13.90;99.90;;;;;;7395609;19;20135;-82
2022/10/03 06:17:44;;;;;;;14.87;8.30;;;13.80;99.90;;;;;;7392483;19;20632;-81
2022/10/03 06:20:13;;;;;;;13.27;8.27;;;13.80;99.90;;;;;;7393791;19;20146;-82
2022/10/03 06:23:09;;;;;;;15.00;9.33;;;13.80;99.90;;;;;;7396240;19;20154;-80
2022/10/03 06:26:14;;;;;;;12.60;8.37;;;14.00;99.90;;;;;;7389072;19;20151;-82
2022/10/03 06:29:01;;;;;;;11.50;7.97;;;14.00;99.90;;;;;;7394811;19;20138;-83
2022/10/03 06:31:52;;;;;;;12.75;9.25;;;13.90;99.90;;;;;;7396208;19;20139;-83
2022/10/03 06:34:40;;;;;;;14.67;9.30;;;14.00;99.90;;;;;;7393993;19;20722;-82
2022/10/03 06:37:27;;;;;;;11.93;8.20;;;13.90;99.90;;;;;;7393013;19;20229;-83
2022/10/03 06:40:26;;;;;;;15.07;8.20;;;13.90;99.90;;;;;;7394846;19;20130;-83
2022/10/03 06:43:12;;;;;;;9.63;7.33;;;13.90;99.90;;;;;;7392382;19;20644;-83
2022/10/03 06:46:15;;;;;;;7.73;6.87;;;13.70;99.90;;;;;;7394434;19;20150;-83
2022/10/03 06:49:18;;;;;;;13.30;8.10;;;13.70;99.90;;;;;;7393806;19;20584;-80
2022/10/03 06:52:03;;;;;;;11.17;7.00;;;13.60;99.90;;;;;;7394985;19;20138;-83
2022/10/03 06:55:03;;;;;;;8.20;6.83;;;13.70;99.90;;;;;;7395607;19;20535;-82
2022/10/03 06:57:47;;;;;;;11.97;7.63;;;13.80;99.90;;;;;;7394756;19;20250;-83
2022/10/03 07:00:16;;;;;;;9.77;7.25;;;13.80;99.90;;;;;;7391193;19;20162;-83
2022/10/03 07:03:04;;;;;;;11.80;7.60;;;13.70;99.90;;;;;;7390100;19;20138;-82
2022/10/03 07:05:36;;;;;;;14.40;8.00;;;13.80;99.90;;;;;;7394643;19;20158;-81
2022/10/03 07:08:29;;;;;;;9.50;6.97;;;13.80;99.90;;;;;;7389038;19;20161;-81
2022/10/03 07:11:29;;;;;;;12.07;8.03;;;13.90;99.90;;;;;;7394685;19;20140;-80
2022/10/03 07:13:57;;;;;;;9.93;7.03;;;13.90;99.90;;;;;;7392270;19;20154;-81
2022/10/03 07:17:07;;;;;;;11.90;7.30;;;14.00;99.90;;;;;;7393277;19;20186;-80
2022/10/03 07:19:53;;;;;;;12.57;7.80;;;14.00;99.90;;;;;;7388042;19;20154;-82
2022/10/03 07:22:56;;;;;;;11.93;8.30;;;14.00;99.90;;;;;;7392729;19;20135;-81
2022/10/03 07:25:28;;;;;;;11.60;8.03;;;14.00;99.90;;;;;;7389385;19;20182;-81
2022/10/03 07:28:25;;;;;;;10.43;7.43;;;14.00;99.90;;;;;;7392457;19;20696;-80
2022/10/03 07:31:14;;;;;;;10.83;8.07;;;14.00;99.90;;;;;;7391555;19;20138;-81
2022/10/03 07:33:47;;;;;;;10.47;7.70;;;14.00;99.90;;;;;;7393422;19;20171;-80
2022/10/03 07:39:36;;;;;;;10.03;7.20;;;14.10;99.90;;;;;;7392661;19;20655;-79
2022/10/03 07:42:59;;;;;;;11.60;7.50;;;14.00;99.90;;;;;;7387382;19;20148;-81
2022/10/03 07:45:29;;;;;;;11.73;8.23;;;14.00;99.90;;;;;;7384192;19;20229;-81
2022/10/03 07:48:51;;;;;;;13.23;7.17;;;14.00;99.90;;;;;;7388070;19;20209;-81
2022/10/03 07:51:26;;;;;;;14.77;8.83;;;14.00;99.90;;;;;;7386530;19;20652;-82
2022/10/03 07:53:51;;;;;;;11.70;7.75;;;14.10;99.90;;;;;;7387397;19;20170;-81
2022/10/03 07:56:52;;;;;;;10.90;7.30;;;14.00;99.90;;;;;;7389286;19;20730;-82
2022/10/03 07:59:33;;;;;;;12.37;7.60;;;14.10;99.90;;;;;;7388446;19;20226;-81
2022/10/03 08:02:14;;;;;;;13.82;7.55;;;14.20;99.90;;;;;;7389203;19;20156;-81
2022/10/03 08:04:43;;;;;;;8.43;6.78;;;14.00;99.90;;;;;;7392472;19;20138;-83
2022/10/03 08:07:56;;;;;;;14.37;7.73;;;14.10;99.90;;;;;;7394496;19;20184;-84
2022/10/03 08:11:03;;;;;;;11.43;6.78;;;14.10;99.90;;;;;;7386714;19;20150;-80
2022/10/03 08:13:41;;;;;;;10.67;6.77;;;14.20;99.90;;;;;;7392338;19;20141;-80
2022/10/03 08:16:44;;;;;;;11.17;6.67;;;14.20;99.90;;;;;;7391695;19;20167;-81
2022/10/03 08:19:42;;;;;;;12.10;7.47;;;14.30;99.90;;;;;;7386125;19;20142;-81
2022/10/03 08:22:26;;;;;;;10.93;6.53;;;14.30;99.90;;;;;;7392470;19;20134;-80
2022/10/03 08:25:16;;;;;;;9.02;6.35;;;14.40;99.90;;;;;;7386149;19;20178;-81
2022/10/03 08:28:24;;;;;;;8.77;6.37;;;14.40;99.90;;;;;;7390622;19;20173;-80
2022/10/03 08:31:24;;;;;;;9.40;5.93;;;14.40;99.90;;;;;;7390126;19;20603;-83
2022/10/03 08:34:17;;;;;;;10.15;5.38;;;14.30;99.90;;;;;;7392872;19;20134;-83
2022/10/03 08:37:20;;;;;;;10.90;5.70;;;14.30;99.90;;;;;;7388645;19;20141;-82
2022/10/03 08:40:10;;;;;;;10.33;6.10;;;14.20;99.90;;;;;;7391586;19;20135;-78
2022/10/03 08:42:56;;;;;;;16.47;5.33;;;14.20;99.90;;;;;;7393999;19;20663;-82
2022/10/03 08:46:05;;;;;;;8.00;5.10;;;14.30;99.90;;;;;;7388289;19;20146;-82
2022/10/03 08:48:57;;;;;;;7.88;4.55;;;14.40;99.90;;;;;;7389686;19;20178;-84
2022/10/03 08:51:39;;;;;;;7.60;4.60;;;14.30;99.90;;;;;;7392143;19;20588;-82
2022/10/03 08:54:39;;;;;;;7.23;4.50;;;14.30;99.90;;;;;;7389368;19;20601;-82
2022/10/03 08:57:24;;;;;;;9.47;5.73;;;14.30;99.90;;;;;;7393299;19;20126;-80
2022/10/03 09:00:09;;;;;;;8.20;5.63;;;14.30;99.90;;;;;;7397743;19;20122;-81
2022/10/03 09:02:50;;;;;;;11.33;6.20;;;14.30;99.90;;;;;;7404819;19;20201;-80
2022/10/03 09:05:21;;;;;;;8.90;5.87;;;14.40;99.90;;;;;;7404369;19;20150;-80
2022/10/03 09:08:02;;;;;;;9.37;5.33;;;14.40;99.90;;;;;;7400136;19;20643;-80
2022/10/03 09:11:05;;;;;;;8.10;5.80;;;14.40;99.90;;;;;;7400418;19;20585;-81
2022/10/03 09:13:56;;;;;;;9.53;4.80;;;14.40;99.90;;;;;;7402132;19;20126;-81
2022/10/03 09:16:57;;;;;;;11.03;4.87;;;14.30;99.90;;;;;;7400932;19;20635;-80
2022/10/03 09:20:01;;;;;;;10.00;5.40;;;14.40;99.90;;;;;;7396366;19;20154;-80
2022/10/03 09:22:51;;;;;;;7.57;4.90;;;14.50;99.90;;;;;;7399592;19;20145;-81
2022/10/03 09:25:21;;;;;;;10.10;5.23;;;14.60;99.90;;;;;;7398381;19;20222;-81
2022/10/03 09:28:18;;;;;;;7.00;4.53;;;14.60;99.90;;;;;;7396947;19;20138;-81
2022/10/03 09:31:25;;;;;;;9.80;4.73;;;14.50;99.90;;;;;;7397616;19;20139;-83
2022/10/03 09:34:06;;;;;;;9.13;5.10;;;14.50;99.90;;;;;;7399124;19;20142;-82
2022/10/03 09:36:53;;;;;;;6.00;4.10;;;14.80;99.90;;;;;;7396651;19;20134;-81
2022/10/03 09:40:06;;;;;;;8.53;4.20;;;14.90;99.90;;;;;;7392153;19;20149;-80
2022/10/03 09:42:58;;;;;;;6.90;3.55;;;14.80;99.90;;;;;;7389454;19;20139;-83
2022/10/03 09:46:01;;;;;;;7.00;4.50;;;14.90;99.90;;;;;;7392983;19;20131;-82
2022/10/03 09:48:57;;;;;;;6.33;3.90;;;15.00;99.90;;;;;;7392819;19;20251;-82
2022/10/03 09:51:44;;;;;;;6.70;3.23;;;15.00;99.90;;;;;;7397050;19;20550;-82
2022/10/03 09:54:42;;;;;;;7.50;3.55;;;15.10;99.90;;;;;;7396564;19;20130;-81
2022/10/03 09:57:47;;;;;;;6.87;3.17;;;15.30;99.90;;;;;;7394897;19;20127;-80
2022/10/03 10:00:36;;;;;;;9.48;3.75;;;15.30;99.90;;;;;;7390777;19;20186;-82
2022/10/03 10:03:23;;;;;;;6.97;3.40;;;15.30;99.90;;;;;;7393464;19;20600;-81
2022/10/03 10:06:12;;;;;;;5.67;2.90;;;15.30;99.90;;;;;;7395024;19;20139;-80
2022/10/03 10:09:06;;;;;;;4.60;3.00;;;15.30;99.90;;;;;;7393811;19;20538;-82
2022/10/03 10:12:05;;;;;;;8.15;3.33;;;15.30;99.90;;;;;;7388254;19;20139;-80
2022/10/03 10:14:49;;;;;;;4.87;3.10;;;15.40;99.90;;;;;;7384601;19;20137;-80
2022/10/03 10:17:25;;;;;;;7.47;2.93;;;15.30;99.90;;;;;;7385925;19;20158;-80
2022/10/03 10:20:28;;;;;;;6.73;2.97;;;15.10;99.90;;;;;;7385247;19;20158;-78
2022/10/03 10:23:27;;;;;;;5.00;3.05;;;15.10;99.90;;;;;;7388835;19;20225;-78
2022/10/03 10:26:31;;;;;;;4.97;3.10;;;15.50;99.90;;;;;;7384800;19;20170;-79
2022/10/03 10:29:15;;;;;;;6.63;3.22;;;15.40;99.90;;;;;;7394883;19;20126;-80
2022/10/03 10:32:09;;;;;;;4.47;2.90;;;15.50;99.90;;;;;;7397117;19;20254;-79
2022/10/03 10:35:30;;;;;;;7.22;3.58;;;15.60;99.90;;;;;;7396227;19;20481;-79
2022/10/03 10:38:31;;;;;;;4.55;3.05;;;15.60;99.90;;;;;;7390430;19;20143;-79
2022/10/03 10:41:11;;;;;;;4.32;2.85;;;15.60;99.90;;;;;;7392028;19;20158;-77
2022/10/03 10:44:11;;;;;;;6.00;2.90;;;15.60;99.90;;;;;;7391548;19;20157;-78
2022/10/03 10:47:16;;;;;;;6.35;2.85;;;15.60;99.90;;;;;;7391759;19;20214;-76
2022/10/03 10:50:03;;;;;;;4.05;2.80;;;15.70;99.90;;;;;;7390673;19;20173;-77
2022/10/03 10:53:00;;;;;;;4.32;2.78;;;15.60;99.90;;;;;;7393563;19;20571;-77
2022/10/03 10:55:50;;;;;;;5.72;3.20;;;15.70;99.90;;;;;;7394201;19;20147;-77
2022/10/03 10:58:56;;;;;;;5.07;2.92;;;15.80;99.90;;;;;;7393574;19;20156;-77
2022/10/03 11:01:46;;;;;;;5.72;2.67;;;15.80;99.90;;;;;;7393929;19;20126;-78
2022/10/03 11:04:30;;;;;;;11.20;3.22;;;15.80;99.90;;;;;;7393394;19;20146;-77
2022/10/03 11:07:10;;;;;;;6.22;3.55;;;15.70;99.90;;;;;;7392105;19;20131;-77
2022/10/03 11:09:45;;;;;;;8.60;4.70;;;15.80;99.90;;;;;;7391994;19;20137;-77
2022/10/03 11:12:23;;;;;;;4.85;3.05;;;15.80;99.90;;;;;;7393688;19;20134;-77
2022/10/03 11:15:26;;;;;;;5.40;2.90;;;15.70;99.90;;;;;;7392897;19;20165;-76
2022/10/03 11:18:33;;;;;;;5.07;2.70;;;15.70;99.90;;;;;;7392138;19;20150;-77
2022/10/03 11:21:19;;;;;;;7.07;3.17;;;15.60;99.90;;;;;;7392489;19;20131;-76
2022/10/03 11:24:16;;;;;;;6.78;3.42;;;15.70;99.90;;;;;;7393089;19;20141;-77
2022/10/03 11:27:10;;;;;;;8.38;3.00;;;15.70;99.90;;;;;;7394273;19;20582;-78
2022/10/03 11:30:01;;;;;;;12.20;3.45;;;15.90;99.90;;;;;;7391933;19;20144;-77
2022/10/03 11:32:56;;;;;;;5.70;3.08;;;15.90;99.90;;;;;;7393536;19;20161;-77
2022/10/03 11:36:10;;;;;;;3.53;2.60;;;15.80;99.90;;;;;;7390829;19;20640;-77
2022/10/03 11:39:01;;;;;;;3.40;2.80;;;15.80;99.90;;;;;;7387513;19;20488;-77
2022/10/03 11:41:38;;;;;;;5.57;3.17;;;15.70;99.90;;;;;;7389633;19;20597;-77
2022/10/03 11:44:16;;;;;;;6.55;3.13;;;15.60;99.90;;;;;;7390261;19;20217;-77
2022/10/03 11:46:54;;;;;;;5.75;2.90;;;15.80;99.90;;;;;;7390907;19;20134;-78
2022/10/03 11:49:25;;;;;;;7.70;2.88;;;15.70;99.90;;;;;;7391549;19;20135;-79
2022/10/03 11:52:07;;;;;;;4.85;2.55;;;15.70;99.90;;;;;;7390491;19;20618;-78
2022/10/03 11:54:38;;;;;;;6.57;2.40;;;15.90;99.90;;;;;;7391449;19;20149;-76
2022/10/03 11:57:25;;;;;;;4.10;2.60;;;15.90;99.90;;;;;;7391199;19;20226;-77
2022/10/03 12:00:14;;;;;;;8.52;3.42;;;15.90;99.90;;;;;;7389940;19;20264;-77
2022/10/03 12:03:09;;;;;;;5.80;2.77;;;16.10;99.90;;;;;;7390629;19;20146;-78
2022/10/03 12:08:53;;;;;;;5.75;2.67;;;16.10;99.90;;;;;;7391276;19;20135;-77
2022/10/03 12:08:55;;;;;;;4.10;2.30;;;16.20;99.90;;;;;;7389293;19;20153;-78
2022/10/03 12:11:35;;;;;;;3.70;2.40;;;16.30;99.90;;;;;;7390184;19;20146;-78
2022/10/03 12:14:25;;;;;;;7.63;2.65;;;16.40;99.90;;;;;;7389018;19;20154;-77
2022/10/03 12:16:56;;;;;;;5.85;3.25;;;16.50;99.90;;;;;;7388983;19;20177;-77
2022/10/03 12:19:46;;;;;;;3.67;2.13;;;16.50;99.90;;;;;;7388272;19;20154;-77
2022/10/03 12:22:40;;;;;;;5.25;2.33;;;16.50;99.90;;;;;;7389616;19;20178;-76
2022/10/03 12:25:15;;;;;;;6.72;2.63;;;16.50;99.90;;;;;;7391490;19;20224;-77
2022/10/03 12:28:14;;;;;;;5.45;2.42;;;16.50;99.90;;;;;;7390165;19;20142;-76
2022/10/03 12:30:54;;;;;;;4.45;2.47;;;16.50;99.90;;;;;;7390559;19;20149;-76
2022/10/03 12:33:44;;;;;;;3.60;1.80;;;16.30;99.90;;;;;;7385919;19;20163;-78
2022/10/03 12:36:32;;;;;;;4.30;2.45;;;16.40;99.90;;;;;;7389499;19;20138;-76
2022/10/03 12:39:01;;;;;;;3.92;2.05;;;16.20;99.90;;;;;;7389435;19;20142;-78
2022/10/03 12:41:59;;;;;;;6.07;1.90;;;16.20;99.90;;;;;;7390540;19;20147;-77
2022/10/03 12:44:56;;;;;;;4.32;1.95;;;16.10;99.90;;;;;;7387406;19;20150;-77
2022/10/03 12:47:25;;;;;;;5.05;2.13;;;16.20;99.90;;;;;;7386088;19;20169;-77
2022/10/03 12:50:26;;;;;;;4.15;2.20;;;16.20;99.90;;;;;;7387930;19;20610;-78
2022/10/03 12:53:14;;;;;;;4.65;1.92;;;16.30;99.90;;;;;;7389397;19;20213;-77
2022/10/03 12:55:51;;;;;;;3.90;1.88;;;16.50;99.90;;;;;;7389832;19;20138;-77
2022/10/03 12:58:28;;;;;;;4.30;1.92;;;16.50;99.90;;;;;;7389520;19;20138;-77
2022/10/03 13:01:22;;;;;;;6.10;2.58;;;16.60;99.90;;;;;;7387645;19;20541;-76
2022/10/03 13:03:54;;;;;;;5.68;2.30;;;16.70;99.90;;;;;;7390669;19;20142;-77
2022/10/03 13:06:44;;;;;;;7.38;2.50;;;16.50;99.90;;;;;;7390608;19;20142;-76
2022/10/03 13:09:12;;;;;;;5.43;2.50;;;16.40;99.90;;;;;;7387076;19;20139;-77
2022/10/03 13:11:45;;;;;;;5.10;2.20;;;16.30;99.90;;;;;;7389971;19;20146;-78
2022/10/03 13:14:44;;;;;;;7.43;2.63;;;16.20;99.90;;;;;;7387306;19;20134;-77
2022/10/03 13:18:01;;;;;;;5.72;2.22;;;16.30;99.90;;;;;;7383219;19;20564;-77
2022/10/03 13:20:36;;;;;;;5.18;2.22;;;16.40;99.90;;;;;;7383131;19;20150;-77
2022/10/03 13:23:23;;;;;;;5.88;2.22;;;16.30;99.90;;;;;;7386158;19;20138;-77
2022/10/03 13:26:14;;;;;;;6.32;2.47;;;16.50;99.90;;;;;;7386568;19;20177;-76
2022/10/03 13:29:12;;;;;;;6.20;2.20;;;16.50;99.90;;;;;;7385785;19;20147;-77
2022/10/03 13:32:06;;;;;;;4.90;2.47;;;16.60;99.90;;;;;;7390753;19;20169;-76
2022/10/03 13:34:55;;;;;;;7.20;2.45;;;16.60;99.90;;;;;;7384297;19;20619;-76
2022/10/03 13:37:43;;;;;;;4.88;2.00;;;16.50;99.90;;;;;;7388963;19;20138;-78
2022/10/03 13:40:16;;;;;;;5.82;1.95;;;16.50;99.90;;;;;;7385256;19;20245;-77
2022/10/03 13:42:46;;;;;;;3.25;2.20;;;16.30;99.90;;;;;;7387852;19;20158;-77
2022/10/03 13:45:19;;;;;;;4.40;2.10;;;16.40;99.90;;;;;;7391353;19;20134;-77
2022/10/03 13:47:58;;;;;;;3.42;1.83;;;16.40;99.90;;;;;;7394983;19;20175;-77
2022/10/03 13:50:30;;;;;;;2.88;1.70;;;16.30;99.90;;;;;;7393772;19;20214;-78
2022/10/03 13:53:08;;;;;;;6.68;2.08;;;16.30;99.90;;;;;;7393112;19;20133;-78
2022/10/03 13:55:46;;;;;;;4.57;1.70;;;16.40;99.90;;;;;;7396538;19;20134;-77
2022/10/03 13:58:22;;;;;;;3.58;1.90;;;16.40;99.90;;;;;;7397018;19;20134;-79
2022/10/03 14:01:03;;;;;;;7.13;3.03;;;16.40;99.90;;;;;;7389791;19;20161;-77
2022/10/03 14:03:48;;;;;;;3.72;2.00;;;16.30;99.90;;;;;;7395932;19;20157;-77
2022/10/03 14:06:23;;;;;;;5.60;1.83;;;16.50;99.90;;;;;;7395741;19;20137;-77
2022/10/03 14:09:17;;;;;;;3.58;2.13;;;16.50;99.90;;;;;;7396175;19;20195;-77
2022/10/03 14:12:11;;;;;;;3.05;1.52;;;16.60;99.90;;;;;;7393597;19;20150;-77
2022/10/03 14:14:56;;;;;;;4.10;1.70;;;16.50;99.90;;;;;;7396152;19;20131;-76
2022/10/03 14:17:31;;;;;;;3.03;1.63;;;16.50;99.90;;;;;;7392087;19;20167;-76
2022/10/03 14:20:23;;;;;;;3.38;1.42;;;16.50;99.90;;;;;;7390593;19;20592;-77
2022/10/03 14:23:14;;;;;;;3.83;1.58;;;16.60;99.90;;;;;;7395456;19;20134;-77
2022/10/03 14:26:06;;;;;;;4.20;1.80;;;16.80;99.90;;;;;;7392120;19;20182;-77
2022/10/03 14:28:40;;;;;;;4.13;2.28;;;16.70;99.90;;;;;;7391586;19;20175;-77
2022/10/03 14:31:08;;;;;;;3.67;2.15;;;16.70;99.90;;;;;;7394358;19;20157;-77
2022/10/03 14:34:02;;;;;;;4.07;2.00;;;16.90;99.90;;;;;;7392831;19;20139;-77
2022/10/03 14:36:57;;;;;;;2.13;1.55;;;16.80;99.90;;;;;;7393120;19;20144;-77
2022/10/03 14:39:22;;;;;;;3.58;1.80;;;16.70;99.90;;;;;;7393478;19;20146;-77
2022/10/03 14:42:23;;;;;;;3.67;1.98;;;16.80;99.90;;;;;;7391924;19;20134;-78
2022/10/03 14:44:59;;;;;;;3.65;1.80;;;16.70;99.90;;;;;;7393426;19;20162;-77